createdAt,value
2016-10-30T00:00:22.409Z,11.83
2016-10-30T00:01:22.399Z,11.86
2016-10-30T00:02:22.415Z,11.86
2016-10-30T00:03:22.467Z,11.83
2016-10-30T00:04:22.447Z,11.72
2016-10-30T00:05:22.467Z,11.83
2016-10-30T00:06:22.521Z,11.73
2016-10-30T00:07:22.507Z,11.8
2016-10-30T00:08:22.520Z,11.91
2016-10-30T00:09:22.575Z,11.73
2016-10-30T00:10:22.555Z,11.77
2016-10-30T00:11:22.568Z,11.84
2016-10-30T00:12:22.588Z,11.68
2016-10-30T00:13:22.608Z,11.81
2016-10-30T00:14:22.623Z,11.77
2016-10-30T00:15:22.640Z,11.81
2016-10-30T00:16:22.655Z,11.8
2016-10-30T00:17:22.671Z,11.73
2016-10-30T00:18:22.691Z,11.77
2016-10-30T00:19:22.708Z,11.78
2016-10-30T00:20:22.726Z,11.78
2016-10-30T00:21:22.741Z,11.69
2016-10-30T00:22:22.761Z,11.77
2016-10-30T00:23:22.785Z,11.83
2016-10-30T00:24:22.798Z,11.84
2016-10-30T00:25:22.814Z,11.83
2016-10-30T00:26:22.829Z,11.8
2016-10-30T00:27:22.856Z,11.86
2016-10-30T00:28:22.863Z,11.77
2016-10-30T00:29:22.878Z,11.75
2016-10-30T00:30:22.897Z,11.8
2016-10-30T00:31:22.918Z,11.77
2016-10-30T00:32:22.931Z,11.77
2016-10-30T00:33:22.950Z,11.73
2016-10-30T00:34:22.968Z,11.78
2016-10-30T00:35:22.985Z,11.77
2016-10-30T00:36:22.998Z,11.8
2016-10-30T00:37:23.029Z,11.8
2016-10-30T00:38:23.038Z,11.84
2016-10-30T00:39:23.056Z,11.81
2016-10-30T00:40:23.067Z,11.8
2016-10-30T00:41:23.084Z,11.72
2016-10-30T00:42:23.102Z,11.72
2016-10-30T00:43:23.123Z,11.81
2016-10-30T00:44:23.140Z,11.81
2016-10-30T00:45:23.165Z,11.72
2016-10-30T00:46:23.173Z,11.84
2016-10-30T00:47:23.188Z,11.8
2016-10-30T00:48:23.202Z,11.8
2016-10-30T00:49:23.219Z,11.81
2016-10-30T00:50:23.237Z,11.8
2016-10-30T00:51:23.264Z,11.8
2016-10-30T00:52:23.269Z,11.77
2016-10-30T00:53:23.284Z,11.78
2016-10-30T00:54:23.298Z,11.78
2016-10-30T00:55:23.314Z,11.77
2016-10-30T00:56:23.339Z,11.75
2016-10-30T00:57:23.356Z,11.73
2016-10-30T00:58:23.380Z,11.78
2016-10-30T00:59:23.378Z,11.75
2016-10-30T01:00:23.411Z,11.84
2016-10-30T01:01:23.423Z,11.72
2016-10-30T01:02:23.437Z,11.72
2016-10-30T01:03:23.459Z,11.8
2016-10-30T01:04:23.472Z,11.77
2016-10-30T01:05:23.497Z,11.8
2016-10-30T01:06:23.511Z,11.8
2016-10-30T01:07:23.517Z,11.77
2016-10-30T01:08:23.545Z,11.72
2016-10-30T01:09:23.565Z,11.73
2016-10-30T01:10:23.583Z,11.84
2016-10-30T01:11:23.600Z,11.81
2016-10-30T01:12:23.650Z,11.78
2016-10-30T01:13:23.629Z,11.72
2016-10-30T01:14:23.651Z,11.78
2016-10-30T01:15:23.664Z,11.8
2016-10-30T01:16:23.681Z,11.72
2016-10-30T01:17:23.705Z,11.69
2016-10-30T01:18:23.717Z,11.78
2016-10-30T01:19:23.730Z,11.66
2016-10-30T01:20:23.756Z,11.77
2016-10-30T01:21:23.763Z,11.69
2016-10-30T01:22:23.783Z,11.68
2016-10-30T01:23:23.802Z,11.77
2016-10-30T01:24:23.820Z,11.7
2016-10-30T01:25:23.833Z,11.69
2016-10-30T01:26:23.845Z,11.77
2016-10-30T01:27:23.873Z,11.7
2016-10-30T01:28:23.884Z,11.77
2016-10-30T01:29:23.900Z,11.78
2016-10-30T01:30:23.929Z,11.77
2016-10-30T01:31:23.969Z,11.65
2016-10-30T01:32:23.952Z,11.7
2016-10-30T01:33:23.977Z,11.63
2016-10-30T01:34:36.730Z,11.65
2016-10-30T01:35:24.013Z,11.66
2016-10-30T01:36:24.028Z,11.72
2016-10-30T01:37:24.048Z,11.72
2016-10-30T01:38:24.064Z,11.72
2016-10-30T01:39:24.079Z,11.66
2016-10-30T01:40:24.103Z,11.78
2016-10-30T01:41:24.214Z,11.68
2016-10-30T01:42:24.227Z,11.72
2016-10-30T01:43:24.351Z,11.69
2016-10-30T01:44:24.361Z,11.66
2016-10-30T01:45:24.413Z,11.77
2016-10-30T01:46:24.380Z,11.77
2016-10-30T01:47:24.389Z,11.69
2016-10-30T01:48:24.392Z,11.77
2016-10-30T01:49:24.397Z,11.7
2016-10-30T01:50:24.444Z,11.62
2016-10-30T01:51:24.416Z,11.72
2016-10-30T01:52:24.417Z,11.63
2016-10-30T01:53:24.398Z,11.75
2016-10-30T01:54:24.399Z,11.66
2016-10-30T01:55:24.454Z,11.73
2016-10-30T01:56:24.412Z,11.72
2016-10-30T01:57:24.431Z,11.7
2016-10-30T01:58:24.417Z,11.72
2016-10-30T01:59:24.426Z,11.73
2016-10-30T02:00:24.527Z,11.77
2016-10-30T02:01:24.451Z,11.68
2016-10-30T02:02:24.464Z,11.63
2016-10-30T02:03:24.493Z,11.75
2016-10-30T02:04:24.500Z,11.73
2016-10-30T02:05:24.520Z,11.72
2016-10-30T02:06:24.876Z,11.73
2016-10-30T02:07:43.762Z,11.7
2016-10-30T02:08:24.577Z,11.69
2016-10-30T02:09:24.599Z,11.78
2016-10-30T02:10:24.630Z,11.77
2016-10-30T02:11:24.629Z,11.77
2016-10-30T02:12:24.643Z,11.69
2016-10-30T02:13:24.666Z,11.7
2016-10-30T02:14:24.692Z,11.66
2016-10-30T02:15:24.702Z,11.72
2016-10-30T02:16:24.773Z,11.72
2016-10-30T02:17:24.740Z,11.72
2016-10-30T02:18:24.750Z,11.68
2016-10-30T02:19:24.773Z,11.7
2016-10-30T02:20:24.783Z,11.7
2016-10-30T02:21:24.812Z,11.69
2016-10-30T02:22:24.862Z,11.7
2016-10-30T02:23:24.847Z,11.69
2016-10-30T02:24:24.858Z,11.72
2016-10-30T02:25:24.875Z,11.68
2016-10-30T02:26:24.891Z,11.73
2016-10-30T02:27:24.908Z,11.77
2016-10-30T02:28:24.924Z,11.68
2016-10-30T02:29:24.937Z,11.81
2016-10-30T02:30:24.956Z,11.7
2016-10-30T02:31:24.985Z,11.69
2016-10-30T02:32:24.987Z,11.68
2016-10-30T02:33:25.005Z,11.66
2016-10-30T02:34:25.012Z,11.72
2016-10-30T02:35:25.053Z,11.66
2016-10-30T02:36:25.056Z,11.72
2016-10-30T02:37:25.080Z,11.69
2016-10-30T02:38:25.088Z,11.7
2016-10-30T02:39:25.106Z,11.65
2016-10-30T02:40:25.132Z,11.63
2016-10-30T02:41:25.149Z,11.72
2016-10-30T02:42:25.159Z,11.73
2016-10-30T02:43:25.184Z,11.65
2016-10-30T02:44:25.189Z,11.65
2016-10-30T02:45:25.202Z,11.75
2016-10-30T02:46:25.223Z,11.65
2016-10-30T02:47:25.241Z,11.62
2016-10-30T02:48:25.262Z,11.65
2016-10-30T02:49:25.294Z,11.65
2016-10-30T02:50:25.295Z,11.63
2016-10-30T02:51:25.347Z,11.62
2016-10-30T02:52:25.327Z,11.68
2016-10-30T02:53:25.345Z,11.73
2016-10-30T02:54:25.363Z,11.66
2016-10-30T02:55:25.387Z,11.77
2016-10-30T02:56:25.401Z,11.66
2016-10-30T02:57:25.411Z,11.68
2016-10-30T02:58:25.434Z,11.73
2016-10-30T02:59:25.452Z,11.7
2016-10-30T03:00:25.473Z,11.66
2016-10-30T03:01:25.487Z,11.66
2016-10-30T03:02:25.500Z,11.69
2016-10-30T03:03:25.525Z,11.62
2016-10-30T03:04:25.529Z,11.69
2016-10-30T03:05:25.553Z,11.65
2016-10-30T03:06:25.567Z,11.65
2016-10-30T03:07:25.601Z,11.63
2016-10-30T03:08:25.603Z,11.8
2016-10-30T03:09:25.617Z,11.63
2016-10-30T03:10:25.634Z,11.69
2016-10-30T03:11:25.654Z,11.73
2016-10-30T03:12:25.667Z,11.68
2016-10-30T03:13:25.686Z,11.68
2016-10-30T03:14:25.746Z,11.65
2016-10-30T03:15:25.724Z,11.69
2016-10-30T03:16:25.737Z,11.66
2016-10-30T03:17:25.753Z,11.63
2016-10-30T03:18:25.811Z,11.68
2016-10-30T03:19:25.799Z,11.62
2016-10-30T03:20:25.806Z,11.68
2016-10-30T03:21:25.826Z,11.66
2016-10-30T03:22:25.845Z,11.66
2016-10-30T03:23:25.851Z,11.75
2016-10-30T03:24:25.871Z,11.66
2016-10-30T03:25:25.886Z,11.66
2016-10-30T03:26:25.910Z,11.69
2016-10-30T03:27:25.925Z,11.66
2016-10-30T03:28:25.951Z,11.72
2016-10-30T03:29:25.961Z,11.66
2016-10-30T03:30:25.969Z,11.75
2016-10-30T03:31:25.999Z,11.65
2016-10-30T03:32:26.012Z,11.7
2016-10-30T03:33:26.019Z,11.65
2016-10-30T03:34:26.054Z,11.65
2016-10-30T03:35:26.069Z,11.68
2016-10-30T03:36:26.088Z,11.68
2016-10-30T03:37:26.102Z,11.7
2016-10-30T03:38:26.113Z,11.66
2016-10-30T03:39:26.132Z,11.62
2016-10-30T03:40:26.154Z,11.68
2016-10-30T03:41:26.164Z,11.62
2016-10-30T03:42:26.178Z,11.6
2016-10-30T03:43:26.207Z,11.65
2016-10-30T03:44:26.216Z,11.66
2016-10-30T03:45:26.235Z,11.68
2016-10-30T03:46:26.243Z,11.65
2016-10-30T03:47:26.275Z,11.59
2016-10-30T03:48:26.282Z,11.66
2016-10-30T03:49:26.309Z,11.65
2016-10-30T03:50:26.317Z,11.62
2016-10-30T03:51:26.335Z,11.68
2016-10-30T03:52:26.664Z,11.73
2016-10-30T03:53:26.381Z,11.65
2016-10-30T03:54:26.380Z,11.6
2016-10-30T03:55:26.400Z,11.6
2016-10-30T03:56:26.422Z,11.59
2016-10-30T03:57:26.436Z,11.57
2016-10-30T03:58:26.451Z,11.57
2016-10-30T03:59:26.515Z,11.72
2016-10-30T04:00:26.535Z,11.62
2016-10-30T04:01:26.508Z,11.68
2016-10-30T04:02:26.528Z,11.59
2016-10-30T04:03:26.544Z,11.59
2016-10-30T04:04:26.552Z,11.63
2016-10-30T04:05:26.573Z,11.66
2016-10-30T04:06:26.601Z,11.65
2016-10-30T04:07:26.607Z,11.6
2016-10-30T04:08:26.616Z,11.62
2016-10-30T04:09:26.641Z,11.59
2016-10-30T04:10:26.760Z,11.65
2016-10-30T04:11:26.675Z,11.54
2016-10-30T04:12:26.698Z,11.57
2016-10-30T04:13:26.715Z,11.66
2016-10-30T04:14:26.730Z,11.59
2016-10-30T04:15:26.740Z,11.57
2016-10-30T04:16:26.761Z,11.6
2016-10-30T04:17:26.785Z,11.55
2016-10-30T04:18:26.848Z,11.66
2016-10-30T04:19:26.812Z,11.59
2016-10-30T04:20:26.829Z,11.63
2016-10-30T04:21:26.855Z,11.62
2016-10-30T04:22:26.861Z,11.6
2016-10-30T04:23:26.878Z,11.62
2016-10-30T04:24:26.893Z,11.59
2016-10-30T04:25:26.943Z,11.6
2016-10-30T04:26:26.937Z,11.62
2016-10-30T04:27:26.950Z,11.59
2016-10-30T04:28:26.964Z,11.54
2016-10-30T04:29:26.979Z,11.55
2016-10-30T04:30:26.991Z,11.66
2016-10-30T04:31:27.010Z,11.62
2016-10-30T04:32:27.036Z,11.52
2016-10-30T04:33:27.045Z,11.52
2016-10-30T04:34:27.064Z,11.52
2016-10-30T04:35:27.133Z,11.6
2016-10-30T04:36:27.143Z,11.52
2016-10-30T04:37:27.116Z,11.54
2016-10-30T04:38:27.144Z,11.51
2016-10-30T04:39:27.145Z,11.62
2016-10-30T04:40:27.171Z,11.57
2016-10-30T04:41:27.181Z,11.52
2016-10-30T04:42:27.203Z,11.57
2016-10-30T04:43:27.227Z,11.54
2016-10-30T04:44:27.235Z,11.48
2016-10-30T04:45:27.246Z,11.55
2016-10-30T04:46:27.276Z,11.52
2016-10-30T04:47:27.284Z,11.59
2016-10-30T04:48:27.304Z,11.59
2016-10-30T04:49:27.319Z,11.54
2016-10-30T04:50:27.341Z,11.52
2016-10-30T04:51:27.352Z,11.52
2016-10-30T04:52:27.368Z,11.55
2016-10-30T04:53:27.389Z,11.55
2016-10-30T04:54:27.410Z,11.52
2016-10-30T04:55:27.426Z,11.57
2016-10-30T04:56:27.445Z,11.5
2016-10-30T04:57:27.454Z,11.48
2016-10-30T04:58:27.472Z,11.52
2016-10-30T04:59:27.500Z,11.54
2016-10-30T05:00:27.506Z,11.5
2016-10-30T05:01:27.521Z,11.55
2016-10-30T05:02:27.540Z,11.51
2016-10-30T05:03:27.560Z,11.45
2016-10-30T05:04:27.569Z,11.54
2016-10-30T05:05:27.593Z,11.54
2016-10-30T05:06:27.613Z,11.44
2016-10-30T05:07:27.631Z,11.48
2016-10-30T05:08:27.637Z,11.55
2016-10-30T05:09:27.662Z,11.51
2016-10-30T05:10:27.684Z,11.47
2016-10-30T05:11:27.700Z,11.52
2016-10-30T05:12:27.705Z,11.5
2016-10-30T05:13:27.728Z,11.6
2016-10-30T05:14:27.752Z,11.47
2016-10-30T05:15:27.754Z,11.57
2016-10-30T05:16:27.813Z,11.48
2016-10-30T05:17:27.800Z,11.47
2016-10-30T05:18:27.817Z,11.47
2016-10-30T05:19:27.838Z,11.51
2016-10-30T05:20:27.840Z,11.47
2016-10-30T05:21:27.864Z,11.52
2016-10-30T05:22:27.884Z,11.47
2016-10-30T05:23:27.896Z,11.47
2016-10-30T05:24:27.922Z,11.43
2016-10-30T05:25:27.925Z,11.51
2016-10-30T05:26:27.957Z,11.55
2016-10-30T05:27:27.965Z,11.52
2016-10-30T05:28:27.981Z,11.52
2016-10-30T05:29:27.993Z,11.51
2016-10-30T05:30:28.011Z,11.48
2016-10-30T05:31:28.029Z,11.51
2016-10-30T05:32:28.042Z,11.47
2016-10-30T05:33:28.066Z,11.43
2016-10-30T05:34:28.088Z,11.48
2016-10-30T05:35:28.106Z,11.47
2016-10-30T05:36:28.426Z,11.47
2016-10-30T05:37:28.179Z,11.52
2016-10-30T05:38:28.151Z,11.52
2016-10-30T05:39:28.174Z,11.51
2016-10-30T05:40:28.181Z,11.5
2016-10-30T05:41:28.198Z,11.48
2016-10-30T05:42:28.216Z,11.44
2016-10-30T05:43:28.231Z,11.5
2016-10-30T05:44:28.256Z,11.51
2016-10-30T05:45:28.268Z,11.48
2016-10-30T05:46:28.331Z,11.45
2016-10-30T05:47:28.301Z,11.5
2016-10-30T05:48:28.316Z,11.48
2016-10-30T05:49:28.338Z,11.47
2016-10-30T05:50:28.353Z,11.45
2016-10-30T05:51:28.366Z,11.51
2016-10-30T05:52:28.386Z,11.45
2016-10-30T05:53:28.441Z,11.45
2016-10-30T05:54:28.421Z,11.44
2016-10-30T05:55:28.442Z,11.47
2016-10-30T05:56:28.775Z,11.43
2016-10-30T05:57:28.478Z,11.45
2016-10-30T05:58:28.493Z,11.45
2016-10-30T05:59:28.506Z,11.36
2016-10-30T06:00:28.522Z,11.44
2016-10-30T06:01:28.535Z,11.44
2016-10-30T06:02:28.557Z,11.37
2016-10-30T06:03:28.568Z,11.5
2016-10-30T06:04:28.597Z,11.43
2016-10-30T06:05:28.613Z,11.4
2016-10-30T06:06:28.623Z,11.44
2016-10-30T06:07:28.676Z,11.43
2016-10-30T06:08:28.684Z,11.41
2016-10-30T06:09:28.672Z,11.37
2016-10-30T06:10:28.702Z,11.45
2016-10-30T06:11:28.701Z,11.4
2016-10-30T06:12:28.722Z,11.47
2016-10-30T06:13:28.753Z,11.36
2016-10-30T06:14:28.758Z,11.37
2016-10-30T06:15:28.783Z,11.35
2016-10-30T06:16:28.789Z,11.41
2016-10-30T06:17:28.812Z,11.41
2016-10-30T06:18:28.831Z,11.4
2016-10-30T06:19:29.168Z,11.36
2016-10-30T06:20:28.864Z,11.41
2016-10-30T06:21:28.879Z,11.45
2016-10-30T06:22:28.895Z,11.43
2016-10-30T06:23:28.919Z,11.37
2016-10-30T06:24:28.923Z,11.4
2016-10-30T06:25:28.951Z,11.3
2016-10-30T06:26:28.972Z,11.43
2016-10-30T06:27:28.981Z,11.44
2016-10-30T06:28:28.992Z,11.33
2016-10-30T06:29:29.014Z,11.4
2016-10-30T06:30:29.083Z,11.41
2016-10-30T06:31:29.045Z,11.4
2016-10-30T06:32:29.065Z,11.37
2016-10-30T06:33:29.093Z,11.37
2016-10-30T06:34:29.102Z,11.45
2016-10-30T06:35:29.118Z,11.43
2016-10-30T06:36:29.131Z,11.36
2016-10-30T06:37:29.152Z,11.4
2016-10-30T06:38:29.173Z,11.37
2016-10-30T06:39:29.178Z,11.37
2016-10-30T06:40:29.199Z,11.36
2016-10-30T06:41:29.210Z,11.37
2016-10-30T06:42:29.233Z,11.37
2016-10-30T06:43:29.249Z,11.35
2016-10-30T06:44:29.275Z,11.36
2016-10-30T06:45:29.434Z,11.36
2016-10-30T06:46:29.303Z,11.41
2016-10-30T06:47:29.306Z,11.43
2016-10-30T06:48:29.429Z,11.41
2016-10-30T06:49:29.350Z,11.36
2016-10-30T06:50:29.373Z,11.41
2016-10-30T06:51:29.385Z,11.43
2016-10-30T06:52:29.403Z,11.43
2016-10-30T06:53:29.419Z,11.43
2016-10-30T06:54:29.431Z,11.41
2016-10-30T06:55:29.456Z,11.37
2016-10-30T06:56:29.465Z,11.41
2016-10-30T06:57:29.488Z,11.37
2016-10-30T06:58:29.497Z,11.37
2016-10-30T06:59:29.518Z,11.4
2016-10-30T07:00:29.540Z,11.37
2016-10-30T07:01:29.574Z,11.4
2016-10-30T07:02:29.575Z,11.43
2016-10-30T07:03:29.587Z,11.45
2016-10-30T07:04:29.608Z,11.43
2016-10-30T07:05:29.616Z,11.44
2016-10-30T07:06:29.639Z,11.4
2016-10-30T07:07:29.655Z,11.43
2016-10-30T07:08:29.671Z,11.47
2016-10-30T07:09:29.689Z,11.47
2016-10-30T07:10:29.694Z,11.54
2016-10-30T07:11:29.720Z,11.54
2016-10-30T07:12:29.732Z,11.48
2016-10-30T07:13:29.756Z,11.48
2016-10-30T07:14:29.776Z,11.48
2016-10-30T07:15:29.782Z,11.48
2016-10-30T07:16:29.802Z,11.51
2016-10-30T07:17:29.820Z,11.52
2016-10-30T07:18:29.843Z,11.5
2016-10-30T07:19:29.853Z,11.55
2016-10-30T07:20:29.869Z,11.48
2016-10-30T07:21:29.882Z,11.5
2016-10-30T07:22:29.907Z,11.48
2016-10-30T07:23:29.929Z,11.48
2016-10-30T07:24:29.946Z,11.43
2016-10-30T07:25:29.960Z,11.55
2016-10-30T07:26:29.976Z,11.47
2016-10-30T07:27:29.994Z,11.47
2016-10-30T07:28:30.004Z,11.52
2016-10-30T07:29:30.022Z,11.48
2016-10-30T07:30:30.046Z,11.52
2016-10-30T07:31:30.052Z,11.6
2016-10-30T07:32:30.072Z,11.57
2016-10-30T07:33:30.096Z,11.59
2016-10-30T07:34:30.102Z,11.54
2016-10-30T07:35:30.122Z,11.6
2016-10-30T07:36:30.149Z,11.62
2016-10-30T07:37:30.157Z,11.6
2016-10-30T07:38:30.170Z,11.55
2016-10-30T07:39:30.190Z,11.6
2016-10-30T07:40:30.212Z,11.63
2016-10-30T07:41:30.233Z,11.72
2016-10-30T07:42:30.243Z,11.57
2016-10-30T07:43:30.397Z,11.66
2016-10-30T07:44:30.282Z,11.66
2016-10-30T07:45:30.404Z,11.63
2016-10-30T07:46:30.413Z,11.66
2016-10-30T07:47:30.422Z,11.65
2016-10-30T07:48:30.357Z,11.68
2016-10-30T07:49:30.366Z,11.77
2016-10-30T07:50:30.498Z,11.73
2016-10-30T07:51:30.507Z,11.73
2016-10-30T07:52:30.516Z,11.69
2016-10-30T07:53:30.550Z,11.68
2016-10-30T07:54:30.551Z,11.68
2016-10-30T07:55:30.559Z,11.73
2016-10-30T07:56:30.565Z,11.73
2016-10-30T07:57:30.574Z,11.73
2016-10-30T07:58:30.582Z,11.75
2016-10-30T07:59:30.582Z,11.75
2016-10-30T08:00:30.589Z,11.72
2016-10-30T08:01:30.640Z,11.81
2016-10-30T08:02:30.647Z,11.8
2016-10-30T08:03:30.645Z,11.77
2016-10-30T08:04:30.654Z,11.81
2016-10-30T08:05:30.674Z,11.78
2016-10-30T08:06:30.673Z,11.84
2016-10-30T08:07:30.683Z,11.72
2016-10-30T08:08:30.693Z,11.69
2016-10-30T08:09:30.700Z,11.69
2016-10-30T08:10:30.720Z,11.83
2016-10-30T08:11:30.741Z,11.78
2016-10-30T08:12:30.747Z,11.88
2016-10-30T08:13:30.767Z,11.87
2016-10-30T08:14:30.780Z,11.86
2016-10-30T08:15:30.804Z,11.95
2016-10-30T08:16:30.819Z,11.94
2016-10-30T08:17:30.830Z,11.99
2016-10-30T08:18:30.855Z,11.91
2016-10-30T08:19:30.879Z,11.91
2016-10-30T08:20:31.092Z,11.99
2016-10-30T08:21:30.908Z,11.99
2016-10-30T08:22:30.921Z,11.97
2016-10-30T08:23:30.949Z,11.99
2016-10-30T08:24:30.964Z,12
2016-10-30T08:25:30.975Z,12.04
2016-10-30T08:26:30.988Z,12.07
2016-10-30T08:27:31.012Z,12.09
2016-10-30T08:28:31.025Z,12.07
2016-10-30T08:29:31.052Z,12.13
2016-10-30T08:30:31.059Z,12.12
2016-10-30T08:31:31.084Z,12.17
2016-10-30T08:32:31.092Z,12.12
2016-10-30T08:33:31.104Z,12.17
2016-10-30T08:34:31.132Z,12.21
2016-10-30T08:35:31.155Z,12.22
2016-10-30T08:36:31.271Z,12.25
2016-10-30T08:37:31.280Z,12.27
2016-10-30T08:38:31.289Z,12.24
2016-10-30T08:39:31.311Z,12.24
2016-10-30T08:40:31.348Z,12.24
2016-10-30T08:41:31.332Z,12.22
2016-10-30T08:42:31.340Z,12.27
2016-10-30T08:43:31.278Z,12.31
2016-10-30T08:44:31.305Z,12.27
2016-10-30T08:45:31.360Z,12.35
2016-10-30T08:46:31.335Z,12.35
2016-10-30T08:47:31.351Z,12.39
2016-10-30T08:48:31.377Z,12.42
2016-10-30T08:49:31.387Z,12.31
2016-10-30T08:50:31.408Z,12.29
2016-10-30T08:51:31.426Z,12.46
2016-10-30T08:52:31.455Z,12.45
2016-10-30T08:53:31.460Z,12.47
2016-10-30T08:54:31.467Z,12.46
2016-10-30T08:55:31.488Z,12.47
2016-10-30T08:56:31.523Z,12.49
2016-10-30T08:57:31.528Z,12.46
2016-10-30T08:58:31.556Z,12.49
2016-10-30T08:59:31.564Z,12.46
2016-10-30T09:00:31.574Z,12.54
2016-10-30T09:01:31.595Z,12.62
2016-10-30T09:02:31.620Z,12.64
2016-10-30T09:03:31.630Z,12.65
2016-10-30T09:04:31.645Z,12.61
2016-10-30T09:05:31.668Z,12.62
2016-10-30T09:06:31.691Z,12.75
2016-10-30T09:07:31.706Z,12.67
2016-10-30T09:08:31.758Z,12.67
2016-10-30T09:09:31.739Z,12.73
2016-10-30T09:10:31.762Z,12.68
2016-10-30T09:11:31.768Z,12.83
2016-10-30T09:12:31.804Z,12.8
2016-10-30T09:13:31.804Z,12.75
2016-10-30T09:14:31.829Z,12.78
2016-10-30T09:15:31.838Z,12.83
2016-10-30T09:16:31.860Z,12.78
2016-10-30T09:17:31.879Z,12.8
2016-10-30T09:18:31.931Z,12.82
2016-10-30T09:19:31.919Z,12.85
2016-10-30T09:20:31.964Z,12.82
2016-10-30T09:21:31.949Z,12.86
2016-10-30T09:22:31.973Z,12.86
2016-10-30T09:23:32.125Z,12.93
2016-10-30T09:24:32.005Z,12.95
2016-10-30T09:25:32.020Z,12.91
2016-10-30T09:26:32.031Z,12.95
2016-10-30T09:27:32.052Z,12.91
2016-10-30T09:28:32.066Z,12.93
2016-10-30T09:29:32.091Z,12.94
2016-10-30T09:30:32.427Z,12.95
2016-10-30T09:31:32.127Z,12.91
2016-10-30T09:32:32.146Z,12.97
2016-10-30T09:33:32.159Z,12.98
2016-10-30T09:34:32.180Z,13
2016-10-30T09:35:32.202Z,12.91
2016-10-30T09:36:32.214Z,13.09
2016-10-30T09:37:32.239Z,12.98
2016-10-30T09:38:32.250Z,12.98
2016-10-30T09:39:32.263Z,13.03
2016-10-30T09:40:32.301Z,13.05
2016-10-30T09:41:32.300Z,13.04
2016-10-30T09:42:32.316Z,13.15
2016-10-30T09:43:32.332Z,13.2
2016-10-30T09:44:32.351Z,13.18
2016-10-30T09:45:32.370Z,13.19
2016-10-30T09:46:32.395Z,13.23
2016-10-30T09:47:32.416Z,13.2
2016-10-30T09:48:32.755Z,13.3
2016-10-30T09:49:32.437Z,13.22
2016-10-30T09:50:32.649Z,13.25
2016-10-30T09:51:32.659Z,13.37
2016-10-30T09:52:32.668Z,13.3
2016-10-30T09:53:32.678Z,13.35
2016-10-30T09:54:32.530Z,13.38
2016-10-30T09:55:32.551Z,13.35
2016-10-30T09:56:32.572Z,13.44
2016-10-30T09:57:32.600Z,13.49
2016-10-30T09:58:32.618Z,13.49
2016-10-30T09:59:32.635Z,13.35
2016-10-30T10:00:32.685Z,13.39
2016-10-30T10:01:32.692Z,13.5
2016-10-30T10:02:32.703Z,13.46
2016-10-30T10:03:32.702Z,13.49
2016-10-30T10:04:32.723Z,13.5
2016-10-30T10:05:32.735Z,13.47
2016-10-30T10:06:32.757Z,13.54
2016-10-30T10:07:32.874Z,13.54
2016-10-30T10:08:32.806Z,13.42
2016-10-30T10:09:32.803Z,13.42
2016-10-30T10:10:32.823Z,13.44
2016-10-30T10:11:32.845Z,13.46
2016-10-30T10:12:32.947Z,13.47
2016-10-30T10:13:32.878Z,13.42
2016-10-30T10:14:32.896Z,13.47
2016-10-30T10:15:32.919Z,13.47
2016-10-30T10:16:32.940Z,13.42
2016-10-30T10:17:32.942Z,13.42
2016-10-30T10:18:32.990Z,13.5
2016-10-30T10:19:32.989Z,13.41
2016-10-30T10:20:33.209Z,13.46
2016-10-30T10:21:33.023Z,13.47
2016-10-30T10:22:33.043Z,13.44
2016-10-30T10:23:33.384Z,13.41
2016-10-30T10:24:33.077Z,13.46
2016-10-30T10:25:33.176Z,13.47
2016-10-30T10:26:33.122Z,13.54
2016-10-30T10:27:33.152Z,13.57
2016-10-30T10:28:33.171Z,13.59
2016-10-30T10:29:33.171Z,13.54
2016-10-30T10:30:33.218Z,13.6
2016-10-30T10:31:33.212Z,13.57
2016-10-30T10:32:33.211Z,13.59
2016-10-30T10:33:33.254Z,13.6
2016-10-30T10:34:33.266Z,13.65
2016-10-30T10:35:33.279Z,13.65
2016-10-30T10:36:33.296Z,13.7
2016-10-30T10:37:33.320Z,13.75
2016-10-30T10:38:34.086Z,13.7
2016-10-30T10:39:34.266Z,13.65
2016-10-30T10:40:33.817Z,13.77
2016-10-30T10:41:33.816Z,13.78
2016-10-30T10:42:34.162Z,13.79
2016-10-30T10:43:33.912Z,13.81
2016-10-30T10:44:34.267Z,13.74
2016-10-30T10:45:34.305Z,13.78
2016-10-30T10:46:34.246Z,13.78
2016-10-30T10:47:33.940Z,13.78
2016-10-30T10:48:34.002Z,13.75
2016-10-30T10:49:34.046Z,13.79
2016-10-30T10:50:33.882Z,13.9
2016-10-30T10:51:34.448Z,13.86
2016-10-30T10:52:34.382Z,13.87
2016-10-30T10:53:34.444Z,13.85
2016-10-30T10:54:34.409Z,13.9
2016-10-30T10:55:34.458Z,13.87
2016-10-30T10:56:34.220Z,13.87
2016-10-30T10:57:34.464Z,13.92
2016-10-30T10:58:34.457Z,13.85
2016-10-30T10:59:33.864Z,13.85
2016-10-30T11:00:34.247Z,13.86
2016-10-30T11:01:33.874Z,13.95
2016-10-30T11:02:33.768Z,13.86
2016-10-30T11:03:33.787Z,13.95
2016-10-30T11:04:33.810Z,13.96
2016-10-30T11:05:33.829Z,13.87
2016-10-30T11:06:33.864Z,13.9
2016-10-30T11:07:33.867Z,13.93
2016-10-30T11:08:33.883Z,13.9
2016-10-30T11:09:34.006Z,13.87
2016-10-30T11:10:33.942Z,14
2016-10-30T11:11:33.941Z,13.86
2016-10-30T11:12:33.995Z,13.89
2016-10-30T11:13:33.972Z,13.86
2016-10-30T11:14:34.097Z,13.9
2016-10-30T11:15:34.011Z,13.92
2016-10-30T11:16:34.029Z,13.86
2016-10-30T11:17:34.041Z,13.86
2016-10-30T11:18:34.063Z,13.87
2016-10-30T11:19:34.089Z,13.87
2016-10-30T11:20:34.128Z,13.87
2016-10-30T11:21:34.121Z,13.93
2016-10-30T11:22:34.371Z,13.9
2016-10-30T11:23:34.155Z,13.9
2016-10-30T11:24:34.293Z,13.96
2016-10-30T11:25:34.190Z,13.93
2016-10-30T11:26:34.219Z,13.97
2016-10-30T11:27:34.310Z,13.99
2016-10-30T11:28:34.253Z,13.96
2016-10-30T11:29:34.268Z,13.99
2016-10-30T11:30:34.281Z,14.05
2016-10-30T11:31:34.523Z,14.04
2016-10-30T11:32:34.434Z,14.07
2016-10-30T11:33:34.540Z,14.11
2016-10-30T11:34:34.359Z,14.11
2016-10-30T11:35:34.382Z,14.14
2016-10-30T11:36:34.508Z,14.2
2016-10-30T11:37:34.416Z,14.04
2016-10-30T11:38:34.440Z,14.2
2016-10-30T11:39:34.493Z,14.2
2016-10-30T11:40:34.473Z,14.2
2016-10-30T11:41:34.493Z,14.18
2016-10-30T11:42:34.507Z,14.15
2016-10-30T11:43:34.524Z,14.15
2016-10-30T11:44:34.551Z,14.2
2016-10-30T11:45:34.568Z,14.2
2016-10-30T11:46:34.677Z,14.18
2016-10-30T11:47:34.596Z,14.22
2016-10-30T11:48:34.624Z,14.22
2016-10-30T11:49:34.750Z,14.22
2016-10-30T11:50:34.667Z,14.18
2016-10-30T11:51:34.795Z,14.12
2016-10-30T11:52:34.802Z,14.15
2016-10-30T11:53:34.699Z,14.2
2016-10-30T11:54:34.802Z,14.2
2016-10-30T11:55:34.748Z,14.26
2016-10-30T11:56:34.768Z,14.14
2016-10-30T11:57:34.787Z,14.22
2016-10-30T11:58:34.809Z,14.2
2016-10-30T11:59:34.816Z,14.17
2016-10-30T12:00:34.847Z,14.28
2016-10-30T12:01:34.930Z,14.29
2016-10-30T12:02:34.916Z,14.33
2016-10-30T12:03:34.895Z,14.33
2016-10-30T12:04:34.921Z,14.41
2016-10-30T12:05:34.933Z,14.5
2016-10-30T12:06:34.951Z,14.48
2016-10-30T12:07:35.095Z,14.48
2016-10-30T12:08:35.120Z,14.54
2016-10-30T12:09:35.011Z,14.51
2016-10-30T12:10:35.342Z,14.62
2016-10-30T12:11:35.050Z,14.68
2016-10-30T12:12:35.069Z,14.69
2016-10-30T12:13:35.196Z,14.79
2016-10-30T12:14:35.184Z,14.73
2016-10-30T12:15:35.120Z,14.77
2016-10-30T12:16:35.141Z,14.84
2016-10-30T12:17:35.151Z,14.85
2016-10-30T12:18:35.290Z,14.88
2016-10-30T12:19:35.192Z,14.88
2016-10-30T12:20:35.206Z,14.84
2016-10-30T12:21:35.233Z,14.99
2016-10-30T12:22:35.262Z,14.96
2016-10-30T12:23:35.310Z,14.89
2016-10-30T12:24:35.293Z,14.89
2016-10-30T12:25:35.396Z,14.96
2016-10-30T12:26:35.561Z,14.91
2016-10-30T12:27:35.344Z,14.94
2016-10-30T12:28:35.371Z,14.86
2016-10-30T12:29:35.470Z,14.91
2016-10-30T12:30:35.546Z,14.85
2016-10-30T12:31:35.428Z,14.82
2016-10-30T12:32:35.439Z,14.94
2016-10-30T12:33:35.464Z,14.89
2016-10-30T12:34:35.485Z,14.96
2016-10-30T12:35:35.616Z,14.88
2016-10-30T12:36:35.512Z,14.81
2016-10-30T12:37:35.647Z,14.92
2016-10-30T12:38:35.751Z,14.82
2016-10-30T12:39:35.579Z,14.79
2016-10-30T12:40:35.599Z,14.72
2016-10-30T12:41:35.622Z,14.89
2016-10-30T12:42:35.637Z,14.77
2016-10-30T12:43:35.658Z,14.77
2016-10-30T12:44:35.748Z,14.73
2016-10-30T12:45:35.690Z,14.78
2016-10-30T12:46:35.716Z,14.69
2016-10-30T12:47:35.720Z,14.73
2016-10-30T12:48:35.843Z,14.68
2016-10-30T12:49:35.772Z,14.66
2016-10-30T12:50:35.792Z,14.59
2016-10-30T12:51:35.908Z,14.66
2016-10-30T12:52:35.829Z,14.62
2016-10-30T12:53:35.840Z,14.69
2016-10-30T12:54:35.863Z,14.58
2016-10-30T12:55:35.895Z,14.63
2016-10-30T12:56:35.896Z,14.51